KLCH/LCH METAR and TAF weather

Enter ICAO airport designator
Station Type Date Time Source
KLCH METAR 2019/08/25 17:53 UTC NOAA

KLCH 251753Z 12009KT 10SM FEW016 SCT022 BKN048 28/25 A2988 RMK AO2 SLP126 T02830250 10306 20250 58011


Station Type Date Time Source
KLCH Decoded METAR 2019/08/25 17:53 UTC NOAA

Station name not available
Aug 25, 2019 - 01:53 PM EDT / 2019.08.25 1753 UTC
Wind: from the ESE (120 degrees) at 10 MPH (9 KT):0
Visibility: 10 mile(s):0
Sky conditions: mostly cloudy
Temperature: 82.9 F (28.3 C)
Dew Point: 77.0 F (25.0 C)
Relative Humidity: 82%
Pressure (altimeter): 29.88 in. Hg (1011 hPa)
Pressure tendency: 0.03 inches (1.1 hPa) lower than three hours ago
ob: KLCH 251753Z 12009KT 10SM FEW016 SCT022 BKN048 28/25 A2988 RMK AO2 SLP126 T02830250 10306 20250 58011
cycle: 18

Station Type Date Time Source
KLCH TAF 2019/08/25 18:24 UTC NOAA

TAF KLCH 251721Z 2518/2618 19008KT P6SM VCTS SCT020CB BKN040
TEMPO 2518/2522 2SM TSRA BKN015CB
FM260000 19005KT P6SM VCSH SCT020 OVC200
FM261400 22008KT P6SM VCTS FEW015 SCT040CB

Example: see airport list